Time;durP1;ratioP1;P1;durP2;ratioP2;P2;SDS_P1;SDS_P2;PMS_P1;PMS_P2;Temp;Humidity;BMP_temperature;BMP_pressure;BME280_temperature;BME280_humidity;BME280_pressure;Samples;Min_cycle;Max_cycle;Signal;HPM_P1;HPM_P2
2023/07/19 00:00:23;;;;;;;0.73;0.73;;;22.50;95.00;;;;;;4987232;28;20568;-71
2023/07/19 00:02:51;;;;;;;0.60;0.40;;;22.50;93.50;;;;;;4991206;28;20211;-71
2023/07/19 00:05:19;;;;;;;0.70;0.60;;;22.30;92.80;;;;;;4989798;28;20232;-71
2023/07/19 00:07:49;;;;;;;0.80;0.70;;;22.20;93.80;;;;;;4989429;28;20210;-70
2023/07/19 00:10:17;;;;;;;0.95;0.75;;;22.10;92.50;;;;;;4991461;28;20219;-71
2023/07/19 00:12:45;;;;;;;0.70;0.60;;;22.10;92.80;;;;;;4986932;28;20279;-70
2023/07/19 00:15:24;;;;;;;0.60;0.50;;;22.00;92.80;;;;;;4990104;28;20219;-71
2023/07/19 00:17:52;;;;;;;0.60;0.40;;;21.90;95.40;;;;;;4991705;28;20204;-71
2023/07/19 00:20:20;;;;;;;1.13;0.60;;;21.90;94.20;;;;;;4985654;28;20266;-71
2023/07/19 00:22:50;;;;;;;0.60;0.50;;;21.90;94.40;;;;;;4991528;28;20256;-71
2023/07/19 00:25:18;;;;;;;0.60;0.50;;;21.80;93.40;;;;;;4991460;28;20278;-71
2023/07/19 00:27:48;;;;;;;0.70;0.50;;;21.80;95.90;;;;;;4986585;28;20207;-70
2023/07/19 00:30:16;;;;;;;0.70;0.50;;;21.90;95.40;;;;;;4984009;28;20216;-70
2023/07/19 00:32:44;;;;;;;1.40;0.50;;;22.00;94.80;;;;;;4987398;28;20690;-70
2023/07/19 00:35:12;;;;;;;0.70;0.50;;;22.10;95.90;;;;;;4988002;28;20716;-70
2023/07/19 00:37:43;;;;;;;0.60;0.47;;;22.10;94.80;;;;;;4987797;28;20674;-70
2023/07/19 00:40:13;;;;;;;1.05;0.50;;;22.10;95.50;;;;;;4988143;28;20211;-70
2023/07/19 00:42:41;;;;;;;0.60;0.43;;;22.20;94.90;;;;;;4988110;28;20212;-71
2023/07/19 00:45:10;;;;;;;0.60;0.50;;;22.10;95.60;;;;;;4988482;28;20610;-71
2023/07/19 00:47:38;;;;;;;0.60;0.50;;;22.10;95.40;;;;;;4988590;28;20230;-71
2023/07/19 00:50:09;;;;;;;0.75;0.75;;;22.00;95.70;;;;;;4989640;28;20218;-72
2023/07/19 00:52:37;;;;;;;0.70;0.40;;;21.90;95.70;;;;;;4988727;28;20208;-72
2023/07/19 00:55:06;;;;;;;0.60;0.40;;;21.90;96.40;;;;;;4990924;28;20240;-71
2023/07/19 00:57:35;;;;;;;0.70;0.65;;;21.90;96.40;;;;;;4987066;28;20222;-71
2023/07/19 01:00:04;;;;;;;0.60;0.50;;;21.90;97.30;;;;;;4988280;28;20199;-71
2023/07/19 01:02:33;;;;;;;0.60;0.40;;;21.90;96.80;;;;;;4988265;28;20628;-72
2023/07/19 01:05:01;;;;;;;0.60;0.50;;;21.90;96.80;;;;;;4982381;28;20261;-69
2023/07/19 01:07:29;;;;;;;0.80;0.63;;;22.00;97.10;;;;;;4987465;28;20208;-69
2023/07/19 01:09:57;;;;;;;0.80;0.50;;;21.90;97.10;;;;;;4989687;28;20203;-69
2023/07/19 01:12:26;;;;;;;0.70;0.55;;;21.80;97.80;;;;;;4989130;28;20215;-71
2023/07/19 01:14:55;;;;;;;0.57;0.47;;;21.80;97.40;;;;;;4989335;28;20717;-70
2023/07/19 01:17:23;;;;;;;1.00;0.75;;;21.70;97.60;;;;;;4988569;28;20199;-70
2023/07/19 01:19:51;;;;;;;1.52;0.60;;;21.80;98.00;;;;;;4988803;28;20230;-71
2023/07/19 01:22:21;;;;;;;1.45;0.60;;;21.90;97.50;;;;;;4986092;28;20633;-70
2023/07/19 01:24:50;;;;;;;0.60;0.50;;;21.80;97.40;;;;;;4989868;28;20231;-70
2023/07/19 01:27:18;;;;;;;0.80;0.75;;;21.70;97.00;;;;;;4987400;28;20215;-70
2023/07/19 01:29:50;;;;;;;1.02;0.60;;;21.60;97.30;;;;;;4987067;28;20230;-69
2023/07/19 01:32:18;;;;;;;0.80;0.55;;;21.40;98.10;;;;;;4980420;28;20220;-69
2023/07/19 01:34:46;;;;;;;0.60;0.40;;;21.50;98.60;;;;;;4990602;28;20232;-69
2023/07/19 01:37:14;;;;;;;0.60;0.40;;;21.40;98.90;;;;;;4987043;28;20208;-68
2023/07/19 01:39:42;;;;;;;0.70;0.50;;;21.30;97.80;;;;;;4985692;28;20222;-69
2023/07/19 01:42:12;;;;;;;0.60;0.50;;;21.10;97.70;;;;;;4990156;28;20204;-69
2023/07/19 01:44:40;;;;;;;0.70;0.60;;;21.10;98.10;;;;;;4988305;28;20275;-69
2023/07/19 01:47:08;;;;;;;0.55;0.40;;;21.00;98.30;;;;;;4991116;28;20677;-69
2023/07/19 01:49:37;;;;;;;0.60;0.50;;;20.90;97.90;;;;;;4992557;28;20207;-70
2023/07/19 01:52:05;;;;;;;1.30;0.75;;;20.90;99.00;;;;;;4989754;28;20232;-69
2023/07/19 01:54:33;;;;;;;0.63;0.63;;;21.00;99.10;;;;;;4987732;28;20650;-70
2023/07/19 01:57:01;;;;;;;0.80;0.50;;;21.00;99.50;;;;;;4987588;28;20207;-69
2023/07/19 01:59:31;;;;;;;0.70;0.60;;;21.10;99.10;;;;;;4982597;28;20212;-70
2023/07/19 02:01:58;;;;;;;0.60;0.47;;;21.20;98.50;;;;;;4989642;28;20246;-69
2023/07/19 02:04:27;;;;;;;0.85;0.55;;;21.20;97.70;;;;;;4991889;28;20598;-69
2023/07/19 02:06:55;;;;;;;0.70;0.60;;;20.90;97.80;;;;;;4991952;28;20219;-70
2023/07/19 02:09:23;;;;;;;1.05;0.50;;;20.80;98.10;;;;;;4991651;28;20258;-69
2023/07/19 02:11:51;;;;;;;0.65;0.45;;;20.50;97.70;;;;;;4990658;28;20222;-70
2023/07/19 02:14:19;;;;;;;0.70;0.70;;;20.30;98.50;;;;;;4991947;28;20222;-70
2023/07/19 02:16:49;;;;;;;0.70;0.40;;;20.10;98.60;;;;;;4991795;28;20210;-70
2023/07/19 02:19:17;;;;;;;0.60;0.40;;;20.00;99.60;;;;;;4983918;28;20732;-71
2023/07/19 02:21:45;;;;;;;0.90;0.65;;;19.90;99.90;;;;;;4991855;28;20748;-70
2023/07/19 02:24:13;;;;;;;0.60;0.50;;;19.70;99.90;;;;;;4991539;28;20211;-69
2023/07/19 02:26:41;;;;;;;0.70;0.50;;;19.70;99.90;;;;;;4990972;28;20207;-69
2023/07/19 02:29:09;;;;;;;0.60;0.40;;;19.60;99.90;;;;;;4991600;28;20907;-69
2023/07/19 02:31:37;;;;;;;0.70;0.50;;;19.60;99.90;;;;;;4991482;28;20218;-69
2023/07/19 02:34:07;;;;;;;1.25;0.55;;;19.70;99.90;;;;;;4991403;28;20220;-69
2023/07/19 02:36:35;;;;;;;0.60;0.40;;;19.60;99.90;;;;;;4991634;28;20561;-69
2023/07/19 02:39:04;;;;;;;0.60;0.45;;;19.50;99.90;;;;;;4991343;28;20277;-69
2023/07/19 02:41:32;;;;;;;0.70;0.50;;;19.50;99.90;;;;;;4987969;28;20209;-68
2023/07/19 02:44:00;;;;;;;0.60;0.50;;;19.70;99.90;;;;;;4990258;28;20743;-68
2023/07/19 02:46:28;;;;;;;0.68;0.50;;;19.90;99.90;;;;;;4991424;28;20256;-68
2023/07/19 02:48:56;;;;;;;0.60;0.40;;;20.20;99.90;;;;;;4991378;28;20205;-68
2023/07/19 02:51:25;;;;;;;3.22;1.02;;;20.30;99.90;;;;;;4991354;28;20240;-70
2023/07/19 02:53:53;;;;;;;1.25;0.70;;;20.30;99.90;;;;;;4991494;28;20210;-71
2023/07/19 02:56:21;;;;;;;0.60;0.50;;;20.20;99.90;;;;;;4983187;28;20210;-70
2023/07/19 02:58:50;;;;;;;0.65;0.52;;;20.20;99.90;;;;;;4991383;28;20214;-71
2023/07/19 03:01:18;;;;;;;1.05;0.70;;;20.20;99.90;;;;;;4988312;28;20210;-71
2023/07/19 03:03:46;;;;;;;0.60;0.40;;;20.10;99.90;;;;;;4988037;28;20209;-71
2023/07/19 03:06:14;;;;;;;0.60;0.35;;;20.40;99.90;;;;;;4993170;28;20226;-71
2023/07/19 03:08:44;;;;;;;0.60;0.45;;;20.50;99.90;;;;;;4992584;28;20201;-71
2023/07/19 03:11:12;;;;;;;0.80;0.50;;;20.60;99.90;;;;;;4992339;28;20207;-71
2023/07/19 03:13:39;;;;;;;0.65;0.47;;;20.70;99.90;;;;;;4990756;28;20218;-71
2023/07/19 03:16:07;;;;;;;0.60;0.47;;;21.00;99.90;;;;;;4992510;28;20894;-71
2023/07/19 03:18:35;;;;;;;0.60;0.50;;;20.80;99.90;;;;;;4990004;28;20210;-71
2023/07/19 03:21:04;;;;;;;0.60;0.40;;;20.70;99.90;;;;;;4989813;28;20252;-68
2023/07/19 03:23:32;;;;;;;0.70;0.57;;;20.60;99.90;;;;;;4989460;28;20287;-68
2023/07/19 03:26:01;;;;;;;1.42;0.93;;;20.60;99.90;;;;;;4989007;28;20233;-70
2023/07/19 03:28:31;;;;;;;0.88;0.50;;;20.50;99.90;;;;;;4992676;28;20217;-70
2023/07/19 03:30:59;;;;;;;0.82;0.55;;;20.40;99.90;;;;;;4991462;28;20284;-68
2023/07/19 03:33:27;;;;;;;0.60;0.43;;;20.30;99.90;;;;;;4992312;28;20227;-68
2023/07/19 03:35:55;;;;;;;0.60;0.50;;;20.20;99.90;;;;;;4992531;28;20233;-68
2023/07/19 03:38:23;;;;;;;0.90;0.90;;;19.90;99.90;;;;;;4990733;28;20629;-67
2023/07/19 03:40:51;;;;;;;0.70;0.68;;;19.80;99.90;;;;;;4992476;28;20206;-68
2023/07/19 03:43:20;;;;;;;0.70;0.47;;;19.60;99.90;;;;;;4989977;28;20206;-68
2023/07/19 03:45:48;;;;;;;0.75;0.68;;;19.40;99.90;;;;;;4988787;28;20242;-68
2023/07/19 03:48:16;;;;;;;1.00;0.63;;;19.30;99.90;;;;;;4994380;28;20225;-68
2023/07/19 03:50:44;;;;;;;0.98;0.63;;;19.20;99.90;;;;;;4994630;28;20225;-68
2023/07/19 03:53:12;;;;;;;1.23;0.85;;;19.20;99.90;;;;;;4991454;28;20225;-69
2023/07/19 03:55:40;;;;;;;0.60;0.50;;;18.90;99.90;;;;;;4990776;28;20618;-70
2023/07/19 03:58:08;;;;;;;0.60;0.40;;;19.10;99.90;;;;;;4988850;28;20218;-69
2023/07/19 04:00:37;;;;;;;0.60;0.40;;;19.00;99.90;;;;;;4992794;28;20210;-67
2023/07/19 04:03:05;;;;;;;0.60;0.60;;;19.20;99.90;;;;;;4991429;28;20209;-67
2023/07/19 04:05:33;;;;;;;0.60;0.40;;;19.40;99.90;;;;;;4989306;28;20238;-67
2023/07/19 04:08:01;;;;;;;0.60;0.50;;;19.70;99.90;;;;;;4989984;28;20202;-67
2023/07/19 04:10:29;;;;;;;1.35;0.50;;;19.90;99.90;;;;;;4991531;28;20256;-67
2023/07/19 04:12:57;;;;;;;0.82;0.57;;;20.00;99.90;;;;;;4988082;28;20277;-67
2023/07/19 04:15:25;;;;;;;0.70;0.52;;;20.10;99.90;;;;;;4989631;28;20222;-67
2023/07/19 04:17:54;;;;;;;1.20;0.75;;;20.00;99.90;;;;;;4987849;28;20210;-68
2023/07/19 04:20:23;;;;;;;0.60;0.50;;;20.00;99.90;;;;;;4990390;28;20210;-67
2023/07/19 04:22:51;;;;;;;0.60;0.40;;;20.00;99.90;;;;;;4990687;28;20212;-67
2023/07/19 04:25:20;;;;;;;1.15;0.50;;;19.90;99.90;;;;;;4989014;28;20786;-67
2023/07/19 04:27:48;;;;;;;0.60;0.50;;;20.00;99.90;;;;;;4990169;28;20261;-68
2023/07/19 04:30:16;;;;;;;0.60;0.50;;;20.10;99.90;;;;;;4989473;28;20198;-68
2023/07/19 04:32:44;;;;;;;0.60;0.52;;;20.30;99.90;;;;;;4984383;28;20271;-67
2023/07/19 04:35:14;;;;;;;1.60;0.75;;;20.30;99.90;;;;;;4985013;28;20590;-67
2023/07/19 04:37:42;;;;;;;0.60;0.40;;;20.20;99.90;;;;;;4989473;28;20639;-68
2023/07/19 04:40:10;;;;;;;0.57;0.40;;;20.10;99.90;;;;;;4991781;28;20217;-69
2023/07/19 04:42:38;;;;;;;0.85;0.60;;;19.90;99.90;;;;;;4986330;28;20282;-69
2023/07/19 04:45:07;;;;;;;0.85;0.60;;;19.60;99.90;;;;;;4979031;28;20239;-69
2023/07/19 04:47:36;;;;;;;1.00;0.73;;;19.40;99.90;;;;;;4985343;28;20625;-69
2023/07/19 04:50:06;;;;;;;0.68;0.55;;;19.20;99.90;;;;;;4982900;28;20203;-69
2023/07/19 04:52:36;;;;;;;0.60;0.50;;;19.10;99.90;;;;;;4978229;28;20262;-68
2023/07/19 04:55:06;;;;;;;1.02;0.52;;;19.20;99.90;;;;;;4975896;28;20583;-68
2023/07/19 04:57:33;;;;;;;0.75;0.68;;;19.40;99.90;;;;;;4977288;28;20602;-69
2023/07/19 05:00:04;;;;;;;1.13;0.68;;;19.40;99.90;;;;;;4984085;28;20209;-68
2023/07/19 05:02:32;;;;;;;0.60;0.50;;;19.40;99.90;;;;;;4980614;28;20216;-69
2023/07/19 05:05:00;;;;;;;0.93;0.70;;;19.40;99.90;;;;;;4984293;28;20230;-68
2023/07/19 05:07:28;;;;;;;1.13;0.50;;;19.50;99.90;;;;;;4985070;28;20290;-68
2023/07/19 05:09:57;;;;;;;1.23;0.90;;;19.70;99.90;;;;;;4983857;28;20214;-68
2023/07/19 05:12:25;;;;;;;0.60;0.40;;;19.80;99.90;;;;;;4978745;28;20221;-68
2023/07/19 05:14:53;;;;;;;0.60;0.40;;;19.90;99.90;;;;;;4981916;28;20226;-68
2023/07/19 05:17:21;;;;;;;0.80;0.50;;;20.00;99.90;;;;;;4980059;28;20210;-68
2023/07/19 05:19:50;;;;;;;0.70;0.57;;;20.20;99.90;;;;;;4981792;28;20206;-70
2023/07/19 05:22:17;;;;;;;1.42;1.27;;;20.30;99.90;;;;;;4978673;28;20207;-68
2023/07/19 05:24:45;;;;;;;0.70;0.60;;;20.40;99.90;;;;;;4982843;28;20370;-69
2023/07/19 05:27:17;;;;;;;0.70;0.63;;;20.40;99.90;;;;;;4980006;28;20689;-69
2023/07/19 05:29:45;;;;;;;0.82;0.80;;;20.50;99.90;;;;;;4979922;28;20211;-70
2023/07/19 05:32:12;;;;;;;0.68;0.55;;;20.70;99.90;;;;;;4978000;28;20233;-69
2023/07/19 05:34:40;;;;;;;0.70;0.70;;;20.80;99.90;;;;;;4981348;28;20696;-70
2023/07/19 05:37:08;;;;;;;0.93;0.70;;;20.70;99.90;;;;;;4982189;28;20206;-69
2023/07/19 05:39:36;;;;;;;0.70;0.50;;;20.70;99.90;;;;;;4981937;28;20214;-68
2023/07/19 05:42:05;;;;;;;1.35;0.77;;;20.70;99.90;;;;;;4979432;28;20275;-68
2023/07/19 05:44:34;;;;;;;0.70;0.60;;;20.70;99.90;;;;;;4980967;28;20242;-68
2023/07/19 05:47:02;;;;;;;1.08;0.60;;;20.70;99.90;;;;;;4980618;28;20225;-69
2023/07/19 05:49:30;;;;;;;1.00;0.90;;;20.50;99.90;;;;;;4984282;28;20226;-69
2023/07/19 05:51:58;;;;;;;0.60;0.40;;;20.60;99.90;;;;;;4978346;28;20231;-68
2023/07/19 05:54:26;;;;;;;0.60;0.50;;;20.70;99.90;;;;;;4978711;28;20241;-69
2023/07/19 05:56:54;;;;;;;0.60;0.50;;;20.90;99.90;;;;;;4980909;28;20209;-68
2023/07/19 05:59:21;;;;;;;0.70;0.57;;;20.90;99.90;;;;;;4980244;28;20210;-68
2023/07/19 06:01:51;;;;;;;0.93;0.65;;;20.90;99.90;;;;;;4977466;28;20213;-71
2023/07/19 06:04:19;;;;;;;1.02;0.60;;;20.90;99.90;;;;;;4981070;28;20227;-70
2023/07/19 06:06:47;;;;;;;0.70;0.60;;;21.00;99.90;;;;;;4980757;28;20210;-70
2023/07/19 06:09:17;;;;;;;0.95;0.70;;;21.00;99.90;;;;;;4979229;28;20214;-70
2023/07/19 06:11:45;;;;;;;0.60;0.47;;;21.10;99.90;;;;;;4978250;28;20212;-67
2023/07/19 06:14:15;;;;;;;1.38;0.55;;;21.10;99.90;;;;;;4985512;28;20269;-67
2023/07/19 06:16:43;;;;;;;0.73;0.57;;;21.30;99.90;;;;;;4987929;28;20212;-68
2023/07/19 06:19:14;;;;;;;0.60;0.40;;;21.40;99.90;;;;;;4989571;28;20208;-68
2023/07/19 06:21:42;;;;;;;0.70;0.60;;;21.60;99.90;;;;;;4983145;28;20326;-70
2023/07/19 06:24:10;;;;;;;1.50;0.47;;;21.80;99.90;;;;;;4988193;28;20230;-70
2023/07/19 06:26:38;;;;;;;0.70;0.60;;;21.90;99.90;;;;;;4985927;28;20215;-71
2023/07/19 06:29:06;;;;;;;0.80;0.60;;;22.00;99.90;;;;;;4987131;28;20221;-71
2023/07/19 06:31:34;;;;;;;0.60;0.40;;;21.90;99.90;;;;;;4991803;28;20210;-71
2023/07/19 06:34:03;;;;;;;0.80;0.70;;;21.90;99.90;;;;;;4999048;28;20310;-71
2023/07/19 06:36:33;;;;;;;1.50;0.80;;;22.00;99.90;;;;;;4990945;28;20265;-71
2023/07/19 06:39:01;;;;;;;0.70;0.70;;;22.00;99.90;;;;;;4991749;28;20254;-70
2023/07/19 06:41:29;;;;;;;0.80;0.75;;;22.00;99.90;;;;;;4991696;28;20211;-70
2023/07/19 06:43:57;;;;;;;0.70;0.55;;;22.10;99.90;;;;;;4991574;28;20588;-71
2023/07/19 06:46:25;;;;;;;0.70;0.60;;;22.10;99.90;;;;;;4989792;28;20206;-71
2023/07/19 06:48:53;;;;;;;0.60;0.50;;;22.10;99.90;;;;;;4991281;28;20254;-71
2023/07/19 06:51:21;;;;;;;1.70;0.77;;;22.10;99.90;;;;;;4988551;28;20207;-73
2023/07/19 06:53:50;;;;;;;0.70;0.60;;;22.00;99.90;;;;;;4991438;28;20253;-70
2023/07/19 06:56:38;;;;;;;0.70;0.50;;;21.90;99.90;;;;;;4991393;28;20643;-70
2023/07/19 06:59:06;;;;;;;1.15;0.55;;;21.80;99.90;;;;;;4991684;28;20195;-70
2023/07/19 07:01:35;;;;;;;0.70;0.43;;;21.80;99.90;;;;;;4985556;28;20216;-70
2023/07/19 07:04:03;;;;;;;0.60;0.52;;;21.70;99.90;;;;;;4991350;28;20199;-71
2023/07/19 07:06:31;;;;;;;1.25;1.00;;;21.70;99.90;;;;;;4991326;28;20212;-71
2023/07/19 07:09:01;;;;;;;1.23;0.68;;;21.80;99.90;;;;;;4991580;28;20255;-70
2023/07/19 07:11:29;;;;;;;0.60;0.50;;;22.00;99.90;;;;;;4991430;28;20679;-71
2023/07/19 07:13:57;;;;;;;0.80;0.50;;;22.10;99.90;;;;;;4991041;28;20203;-70
2023/07/19 07:16:24;;;;;;;2.65;1.67;;;22.30;99.90;;;;;;4984942;28;20233;-71
2023/07/19 07:18:52;;;;;;;0.63;0.45;;;22.40;99.90;;;;;;4991585;28;20210;-71
2023/07/19 07:21:20;;;;;;;0.60;0.35;;;22.60;99.90;;;;;;4987974;28;20211;-76
2023/07/19 07:23:49;;;;;;;0.70;0.60;;;22.80;99.90;;;;;;4983564;28;20204;-71
2023/07/19 07:26:18;;;;;;;0.60;0.50;;;23.00;99.90;;;;;;4991142;28;20232;-73
2023/07/19 07:28:46;;;;;;;0.60;0.50;;;23.10;99.90;;;;;;4991389;28;20214;-71
2023/07/19 07:31:14;;;;;;;0.75;0.63;;;23.30;99.90;;;;;;4989862;28;20224;-71
2023/07/19 07:33:42;;;;;;;0.60;0.52;;;23.40;99.90;;;;;;4983047;28;20272;-71
2023/07/19 07:36:10;;;;;;;0.70;0.47;;;23.50;99.90;;;;;;4991151;28;20603;-70
2023/07/19 07:38:38;;;;;;;0.93;0.60;;;23.60;99.90;;;;;;4991139;28;20234;-71
2023/07/19 07:41:06;;;;;;;1.70;0.60;;;23.80;99.90;;;;;;4991231;28;20212;-71
2023/07/19 07:43:35;;;;;;;0.70;0.50;;;24.00;99.90;;;;;;4991131;28;20209;-72
2023/07/19 07:46:03;;;;;;;0.98;0.70;;;24.10;99.90;;;;;;4990757;28;20235;-71
2023/07/19 07:48:32;;;;;;;0.70;0.50;;;24.30;98.60;;;;;;4989398;28;20208;-71
2023/07/19 07:51:00;;;;;;;0.73;0.63;;;24.40;99.20;;;;;;4993866;28;20244;-73
2023/07/19 07:53:28;;;;;;;0.93;0.75;;;24.50;98.90;;;;;;4994341;28;20893;-71
2023/07/19 07:55:56;;;;;;;0.68;0.52;;;24.70;98.90;;;;;;4994665;28;20303;-71
2023/07/19 07:58:24;;;;;;;0.73;0.52;;;24.90;98.60;;;;;;4993214;28;20259;-71
2023/07/19 08:00:54;;;;;;;0.88;0.50;;;25.10;97.50;;;;;;4991129;28;20226;-71
2023/07/19 08:03:22;;;;;;;0.60;0.50;;;25.20;96.70;;;;;;4994698;28;20204;-71
2023/07/19 08:05:50;;;;;;;0.70;0.50;;;25.30;96.90;;;;;;4986443;28;20225;-71
2023/07/19 08:08:18;;;;;;;0.60;0.50;;;25.50;98.90;;;;;;4994821;28;20630;-71
2023/07/19 08:10:46;;;;;;;0.70;0.60;;;25.70;97.00;;;;;;4994536;28;20208;-71
2023/07/19 08:13:14;;;;;;;0.60;0.50;;;26.00;96.40;;;;;;4994043;28;20196;-71
2023/07/19 08:15:42;;;;;;;0.60;0.40;;;26.10;96.20;;;;;;4992948;28;20291;-71
2023/07/19 08:18:12;;;;;;;0.60;0.40;;;26.30;96.80;;;;;;4994436;28;20200;-71
2023/07/19 08:20:40;;;;;;;1.15;0.98;;;26.60;94.90;;;;;;4994285;28;20209;-71
2023/07/19 08:23:08;;;;;;;0.60;0.50;;;26.70;94.30;;;;;;4994164;28;20230;-72
2023/07/19 08:25:36;;;;;;;0.80;0.50;;;26.90;94.00;;;;;;4994092;28;20225;-72
2023/07/19 08:28:04;;;;;;;0.80;0.55;;;27.00;94.50;;;;;;4994301;28;20209;-72
2023/07/19 08:30:32;;;;;;;0.80;0.52;;;27.20;94.70;;;;;;4987949;28;20272;-71
2023/07/19 08:33:05;;;;;;;0.60;0.40;;;27.40;93.00;;;;;;4994001;28;20684;-72
2023/07/19 08:35:35;;;;;;;1.77;0.60;;;27.40;92.40;;;;;;4993540;28;20313;-71
2023/07/19 08:38:02;;;;;;;0.70;0.50;;;27.10;92.40;;;;;;4994068;28;20205;-73
2023/07/19 08:40:32;;;;;;;0.60;0.50;;;27.30;94.20;;;;;;4993816;28;20214;-71
2023/07/19 08:43:04;;;;;;;0.70;0.52;;;27.40;93.30;;;;;;4994443;28;20251;-71
2023/07/19 08:45:35;;;;;;;0.68;0.55;;;27.70;93.10;;;;;;4984411;28;20235;-71
2023/07/19 08:48:04;;;;;;;0.80;0.80;;;27.80;92.00;;;;;;4993847;28;20213;-71
2023/07/19 08:50:35;;;;;;;0.82;0.57;;;28.10;91.40;;;;;;4993567;28;20214;-72
2023/07/19 08:53:02;;;;;;;0.70;0.60;;;28.00;91.50;;;;;;4993750;28;20669;-71
2023/07/19 08:55:32;;;;;;;0.80;0.55;;;28.10;92.50;;;;;;4993143;28;20237;-72
2023/07/19 08:58:00;;;;;;;0.80;0.60;;;28.20;91.30;;;;;;4993608;28;20213;-72
2023/07/19 09:00:31;;;;;;;0.95;0.60;;;28.40;91.30;;;;;;4989872;28;20576;-72
2023/07/19 09:02:59;;;;;;;0.60;0.50;;;28.50;90.40;;;;;;4992860;28;20202;-71
2023/07/19 09:05:29;;;;;;;0.95;0.70;;;28.60;90.80;;;;;;4993175;28;20301;-72
2023/07/19 09:08:02;;;;;;;0.85;0.75;;;28.70;92.00;;;;;;4993598;28;20202;-72
2023/07/19 09:10:30;;;;;;;1.00;0.60;;;28.90;91.00;;;;;;4993361;28;20687;-72
2023/07/19 09:12:58;;;;;;;0.60;0.50;;;29.30;89.20;;;;;;4985767;28;20198;-71
2023/07/19 09:15:28;;;;;;;1.70;0.50;;;29.60;88.20;;;;;;4989352;28;20698;-72
2023/07/19 09:17:56;;;;;;;0.90;0.50;;;29.80;86.60;;;;;;4989348;28;20190;-72
2023/07/19 09:20:28;;;;;;;1.10;0.68;;;29.60;85.50;;;;;;4993203;28;20289;-72
2023/07/19 09:22:57;;;;;;;0.70;0.65;;;29.50;88.90;;;;;;4989343;28;20273;-72
2023/07/19 09:25:27;;;;;;;0.70;0.55;;;29.60;86.40;;;;;;4992573;28;20646;-71
2023/07/19 09:27:55;;;;;;;0.75;0.75;;;29.70;84.20;;;;;;4992778;28;20202;-72
2023/07/19 09:30:23;;;;;;;0.70;0.50;;;29.60;84.10;;;;;;4992694;28;20202;-72
2023/07/19 09:32:59;;;;;;;0.90;0.70;;;29.80;83.90;;;;;;4992644;28;20652;-71
2023/07/19 09:35:29;;;;;;;0.80;0.63;;;30.40;88.00;;;;;;4992261;28;20222;-72
2023/07/19 09:37:58;;;;;;;0.70;0.60;;;30.60;82.90;;;;;;4992676;28;21234;-71
2023/07/19 09:40:27;;;;;;;0.70;0.60;;;30.60;82.00;;;;;;4992891;28;20709;-71
2023/07/19 09:42:57;;;;;;;0.87;0.60;;;30.50;82.20;;;;;;4992360;28;20613;-72
2023/07/19 09:45:28;;;;;;;0.70;0.60;;;30.40;81.10;;;;;;5043928;23;20696;-66
2023/07/19 09:47:57;;;;;;;0.60;0.40;;;30.40;81.90;;;;;;4973294;28;20254;-66
2023/07/19 09:50:27;;;;;;;0.60;0.50;;;30.20;79.80;;;;;;4973216;28;20213;-66
2023/07/19 09:52:56;;;;;;;0.70;0.70;;;30.10;79.80;;;;;;4975111;28;20235;-66
2023/07/19 09:55:25;;;;;;;0.65;0.50;;;30.00;79.90;;;;;;4979332;28;20284;-66
2023/07/19 09:57:55;;;;;;;0.90;0.70;;;29.60;79.60;;;;;;4992391;28;20676;-66
2023/07/19 10:00:23;;;;;;;0.90;0.52;;;29.70;82.70;;;;;;4987003;28;20210;-66
2023/07/19 10:02:51;;;;;;;0.88;0.88;;;29.80;80.50;;;;;;4991068;28;20271;-66
2023/07/19 10:05:27;;;;;;;0.60;0.50;;;30.00;81.60;;;;;;4991837;28;20233;-66
2023/07/19 10:08:02;;;;;;;0.60;0.50;;;30.20;79.50;;;;;;4992310;28;20268;-66
2023/07/19 10:10:36;;;;;;;0.60;0.50;;;30.60;81.10;;;;;;4992454;28;20216;-66
2023/07/19 10:13:06;;;;;;;0.60;0.40;;;31.00;78.50;;;;;;4984241;28;20629;-67
2023/07/19 10:15:35;;;;;;;0.60;0.50;;;31.20;77.40;;;;;;4988740;28;20231;-67
2023/07/19 10:18:10;;;;;;;0.70;0.50;;;31.20;78.80;;;;;;4984370;28;20199;-66
2023/07/19 10:20:40;;;;;;;0.70;0.50;;;31.40;79.70;;;;;;4992129;28;20711;-66
2023/07/19 10:23:08;;;;;;;0.60;0.40;;;31.80;76.80;;;;;;4979956;28;20768;-66
2023/07/19 10:25:37;;;;;;;0.70;0.47;;;32.20;75.30;;;;;;4980101;28;20762;-66
2023/07/19 10:28:09;;;;;;;0.60;0.50;;;32.50;74.40;;;;;;4984531;28;20668;-66
2023/07/19 10:30:54;;;;;;;1.20;0.50;;;32.30;73.90;;;;;;4991330;28;21216;-66
2023/07/19 10:33:23;;;;;;;0.63;0.50;;;32.10;72.10;;;;;;4986640;28;20623;-66
2023/07/19 10:35:52;;;;;;;0.70;0.50;;;31.80;72.90;;;;;;4991267;28;20665;-66
2023/07/19 10:38:22;;;;;;;0.87;0.70;;;31.50;74.10;;;;;;4991952;28;20626;-66
2023/07/19 10:40:57;;;;;;;0.80;0.50;;;31.10;73.40;;;;;;4991607;28;20654;-66
2023/07/19 10:43:27;;;;;;;0.80;0.63;;;31.00;74.20;;;;;;4992175;28;20638;-66
2023/07/19 10:46:14;;;;;;;1.38;0.65;;;30.60;74.60;;;;;;4981747;28;20664;-66
2023/07/19 10:48:42;;;;;;;1.10;0.55;;;30.30;75.00;;;;;;4988683;28;20237;-66
2023/07/19 10:51:11;;;;;;;0.70;0.55;;;30.10;75.70;;;;;;4991769;28;20212;-66
2023/07/19 10:53:45;;;;;;;1.23;0.50;;;30.10;77.40;;;;;;4975670;28;20226;-63
2023/07/19 10:56:14;;;;;;;1.25;1.15;;;30.30;75.80;;;;;;4984447;28;20218;-64
2023/07/19 10:58:44;;;;;;;1.40;0.63;;;30.50;74.60;;;;;;4991607;28;20217;-64
2023/07/19 11:01:12;;;;;;;0.60;0.40;;;30.40;75.50;;;;;;4991822;28;20315;-64
2023/07/19 11:03:45;;;;;;;0.70;0.60;;;30.30;76.20;;;;;;4989773;28;20209;-66
2023/07/19 11:06:13;;;;;;;;;;;30.20;75.70;;;;;;4991825;28;19967;-67
2023/07/19 11:08:41;;;;;;;;;;;30.30;75.70;;;;;;4992071;28;20351;-67
2023/07/19 11:11:10;;;;;;;;;;;30.10;76.70;;;;;;4984404;28;20454;-68
2023/07/19 11:13:38;;;;;;;;;;;30.20;77.60;;;;;;4992149;28;19926;-68
2023/07/19 11:16:08;;;;;;;;;;;30.20;76.60;;;;;;4991460;28;19973;-67
2023/07/19 11:18:36;;;;;;;;;;;30.00;75.80;;;;;;4990019;28;20408;-68
2023/07/19 11:21:04;;;;;;;;;;;29.90;75.70;;;;;;4991869;28;19922;-67
2023/07/19 11:23:37;;;;;;;;;;;29.70;78.30;;;;;;4977096;28;19929;-67
2023/07/19 11:26:05;;;;;;;;;;;29.40;76.00;;;;;;4986375;28;19936;-68
2023/07/19 11:28:36;;;;;;;;;;;29.30;77.00;;;;;;4996007;28;19929;-67
2023/07/19 11:31:05;;;;;;;;;;;29.30;77.50;;;;;;4995431;28;19952;-68
2023/07/19 11:33:36;;;;;;;;;;;29.10;77.30;;;;;;4995836;28;20287;-68
2023/07/19 11:36:06;;;;;;;;;;;29.10;78.10;;;;;;4988298;28;19930;-67
2023/07/19 11:38:34;;;;;;;0.60;0.40;;;29.00;77.50;;;;;;4995283;28;20053;-67
2023/07/19 11:41:02;;;;;;;2.97;0.65;;;29.00;77.50;;;;;;4994631;28;20210;-67
2023/07/19 11:43:30;;;;;;;0.90;0.60;;;29.00;78.90;;;;;;4995064;28;20198;-68
2023/07/19 11:45:59;;;;;;;0.60;0.50;;;29.00;77.50;;;;;;4994371;28;20249;-68
2023/07/19 11:48:27;;;;;;;0.60;0.45;;;29.00;77.50;;;;;;4995004;28;20322;-67
2023/07/19 11:50:57;;;;;;;0.60;0.40;;;29.00;77.80;;;;;;4993945;28;20214;-67
2023/07/19 11:53:27;;;;;;;1.13;0.85;;;29.00;76.80;;;;;;4989442;28;20265;-68
2023/07/19 11:55:55;;;;;;;0.60;0.40;;;29.00;77.10;;;;;;4984255;28;20234;-67
2023/07/19 11:58:29;;;;;;;1.35;1.25;;;28.90;77.90;;;;;;4994893;28;20226;-67
2023/07/19 12:01:12;;;;;;;0.60;0.40;;;28.90;77.40;;;;;;4987064;28;20551;-67
2023/07/19 12:03:40;;;;;;;0.60;0.50;;;28.80;77.80;;;;;;4995027;28;20220;-68
2023/07/19 12:06:10;;;;;;;0.70;0.52;;;28.80;77.80;;;;;;4994280;28;20244;-67
2023/07/19 12:08:39;;;;;;;0.70;0.52;;;28.60;78.10;;;;;;4993219;28;20257;-67
2023/07/19 12:11:07;;;;;;;0.60;0.40;;;28.60;78.70;;;;;;4994179;28;20214;-67
2023/07/19 12:13:35;;;;;;;0.60;0.40;;;28.60;79.70;;;;;;4994536;28;20205;-67
2023/07/19 12:16:03;;;;;;;0.70;0.50;;;28.50;78.90;;;;;;4994057;28;20602;-67
2023/07/19 12:18:31;;;;;;;0.60;0.40;;;28.50;79.10;;;;;;4994445;28;20337;-67
2023/07/19 12:21:00;;;;;;;0.60;0.40;;;28.50;80.30;;;;;;4993985;28;20735;-68
2023/07/19 12:23:30;;;;;;;0.70;0.70;;;28.40;81.80;;;;;;4980973;28;20216;-68
2023/07/19 12:26:02;;;;;;;1.20;0.60;;;28.20;86.30;;;;;;4985419;28;20283;-68
2023/07/19 12:28:30;;;;;;;0.60;0.40;;;28.30;90.20;;;;;;4994331;28;20661;-68
2023/07/19 12:30:57;;;;;;;0.60;0.40;;;28.40;93.40;;;;;;4993734;28;20667;-67
2023/07/19 12:33:25;;;;;;;2.05;0.82;;;28.50;92.10;;;;;;4994098;28;20229;-68
2023/07/19 12:35:53;;;;;;;0.60;0.40;;;28.60;92.30;;;;;;4993527;28;20280;-67
2023/07/19 12:38:21;;;;;;;0.60;0.50;;;28.50;91.20;;;;;;4994046;28;20248;-68
2023/07/19 12:40:51;;;;;;;1.55;1.30;;;28.30;91.30;;;;;;4986599;28;20590;-68
2023/07/19 12:43:19;;;;;;;1.35;0.50;;;28.20;91.60;;;;;;4986495;28;20621;-68
2023/07/19 12:45:47;;;;;;;3.40;0.50;;;28.10;91.60;;;;;;4993422;28;20238;-67
2023/07/19 12:48:15;;;;;;;0.70;0.60;;;27.90;94.60;;;;;;4993833;28;20292;-67
2023/07/19 12:50:43;;;;;;;1.55;0.65;;;27.70;99.80;;;;;;4993787;28;20206;-67
2023/07/19 12:53:11;;;;;;;0.75;0.50;;;27.20;99.90;;;;;;4982874;28;20242;-67
2023/07/19 12:55:38;;;;;;;0.70;0.60;;;26.80;99.80;;;;;;4980591;28;20643;-67
2023/07/19 12:58:08;;;;;;;0.60;0.40;;;26.60;99.90;;;;;;4990782;28;20227;-67